createdAt,value
2023-04-02T00:00:19.591Z,9.36
2023-04-02T00:02:57.476Z,9.37
2023-04-02T00:05:54.994Z,9.38
2023-04-02T00:08:41.090Z,9.37
2023-04-02T00:11:10.775Z,9.36
2023-04-02T00:13:44.716Z,9.37
2023-04-02T00:16:20.952Z,9.36
2023-04-02T00:18:54.350Z,9.36
2023-04-02T00:21:25.478Z,9.37
2023-04-02T00:23:56.077Z,9.40
2023-04-02T00:26:33.022Z,9.43
2023-04-02T00:29:03.182Z,9.47
2023-04-02T00:31:33.882Z,9.46
2023-04-02T00:34:04.748Z,9.46
2023-04-02T00:36:35.307Z,9.50
2023-04-02T00:39:08.953Z,9.49
2023-04-02T00:41:38.818Z,9.50
2023-04-02T00:44:07.517Z,9.50
2023-04-02T00:46:47.126Z,9.47
2023-04-02T00:49:23.513Z,9.46
2023-04-02T00:51:55.835Z,9.46
2023-04-02T00:54:26.737Z,9.44
2023-04-02T00:56:58.261Z,9.45
2023-04-02T00:59:29.341Z,9.43
2023-04-02T01:02:02.666Z,9.45
2023-04-02T01:04:34.673Z,9.44
2023-04-02T01:07:09.258Z,9.42
2023-04-02T01:10:03.386Z,9.42
2023-04-02T01:12:52.222Z,9.40
2023-04-02T01:15:25.934Z,9.42
2023-04-02T01:18:09.685Z,9.42
2023-04-02T01:21:12.267Z,9.44
2023-04-02T01:23:53.941Z,9.44
2023-04-02T01:26:36.099Z,9.44
2023-04-02T01:29:12.008Z,9.44
2023-04-02T01:31:41.811Z,9.45
2023-04-02T01:34:14.574Z,9.45
2023-04-02T01:36:53.230Z,9.44
2023-04-02T01:39:31.807Z,9.45
2023-04-02T01:42:07.949Z,9.45
2023-04-02T01:44:42.975Z,9.45
2023-04-02T01:47:18.323Z,9.42
2023-04-02T01:49:48.197Z,9.39
2023-04-02T01:52:19.230Z,9.38
2023-04-02T01:54:48.672Z,9.38
2023-04-02T01:57:20.944Z,9.37
2023-04-02T01:59:50.904Z,9.35
2023-04-02T02:02:21.969Z,9.33
2023-04-02T02:04:50.988Z,9.32
2023-04-02T02:07:23.464Z,9.31
2023-04-02T02:09:52.453Z,9.30
2023-04-02T02:12:20.926Z,9.30
2023-04-02T02:14:52.113Z,9.29
2023-04-02T02:17:34.504Z,9.26
2023-04-02T02:20:06.689Z,9.25
2023-04-02T02:22:38.959Z,9.25
2023-04-02T02:25:14.652Z,9.25
2023-04-02T02:27:54.393Z,9.27
2023-04-02T02:30:28.356Z,9.26
2023-04-02T02:33:03.507Z,9.25
2023-04-02T02:35:38.410Z,9.23
2023-04-02T02:38:39.858Z,9.23
2023-04-02T02:41:14.823Z,9.22
2023-04-02T02:43:47.885Z,9.21
2023-04-02T02:46:21.125Z,9.19
2023-04-02T02:48:50.964Z,9.17
2023-04-02T02:51:26.177Z,9.17
2023-04-02T02:53:58.516Z,9.18
2023-04-02T02:56:27.989Z,9.17
2023-04-02T02:58:56.524Z,9.17
2023-04-02T03:01:29.008Z,9.17
2023-04-02T03:03:57.759Z,9.17
2023-04-02T03:06:26.500Z,9.16
2023-04-02T03:09:03.418Z,9.17
2023-04-02T03:11:38.348Z,9.15
2023-04-02T03:14:16.954Z,9.15
2023-04-02T03:16:49.994Z,9.16
2023-04-02T03:19:29.261Z,9.15
2023-04-02T03:22:05.944Z,9.16
2023-04-02T03:24:40.809Z,9.16
2023-04-02T03:27:15.481Z,9.17
2023-04-02T03:29:49.565Z,9.21
2023-04-02T03:32:32.673Z,9.20
2023-04-02T03:35:05.226Z,9.16
2023-04-02T03:37:40.349Z,9.12
2023-04-02T03:40:11.680Z,9.12
2023-04-02T03:42:44.499Z,9.13
2023-04-02T03:45:17.877Z,9.11
2023-04-02T03:47:54.033Z,9.09
2023-04-02T03:50:29.112Z,9.11
2023-04-02T03:52:58.373Z,9.10
2023-04-02T03:55:30.048Z,9.10
2023-04-02T03:58:02.412Z,9.09
2023-04-02T04:00:37.872Z,9.10
2023-04-02T04:03:13.792Z,9.13
2023-04-02T04:05:49.285Z,9.14
2023-04-02T04:08:22.214Z,9.16
2023-04-02T04:10:53.567Z,9.18
2023-04-02T04:13:30.082Z,9.19
2023-04-02T04:16:03.850Z,9.19
2023-04-02T04:18:41.874Z,9.21
2023-04-02T04:21:18.458Z,9.20
2023-04-02T04:23:51.438Z,9.21
2023-04-02T04:26:24.646Z,9.22
2023-04-02T04:29:05.528Z,9.24
2023-04-02T04:31:40.715Z,9.24
2023-04-02T04:34:16.589Z,9.24
2023-04-02T04:36:54.240Z,9.27
2023-04-02T04:39:29.557Z,9.27
2023-04-02T04:42:01.393Z,9.29
2023-04-02T04:44:42.983Z,9.29
2023-04-02T04:47:16.603Z,9.29
2023-04-02T04:49:49.179Z,9.28
2023-04-02T04:52:21.618Z,9.29
2023-04-02T04:54:50.150Z,9.27
2023-04-02T04:57:31.104Z,9.23
2023-04-02T05:00:08.053Z,9.25
2023-04-02T05:02:42.043Z,9.23
2023-04-02T05:05:21.206Z,9.26
2023-04-02T05:07:52.553Z,9.27
2023-04-02T05:10:30.177Z,9.27
2023-04-02T05:13:05.073Z,9.27
2023-04-02T05:15:40.139Z,9.27
2023-04-02T05:18:18.858Z,9.28
2023-04-02T05:20:52.390Z,9.29
2023-04-02T05:23:27.070Z,9.31
2023-04-02T05:26:01.205Z,9.30
2023-04-02T05:28:36.801Z,9.31
2023-04-02T05:31:12.091Z,9.24
2023-04-02T05:33:41.261Z,9.20
2023-04-02T05:36:13.437Z,9.18
2023-04-02T05:38:47.637Z,9.16
2023-04-02T05:41:26.875Z,9.18
2023-04-02T05:44:06.859Z,9.20
2023-04-02T05:46:38.303Z,9.20
2023-04-02T05:49:11.131Z,9.22
2023-04-02T05:51:46.272Z,9.20
2023-04-02T05:54:23.308Z,9.20
2023-04-02T05:56:57.052Z,9.20
2023-04-02T05:59:30.353Z,9.19
2023-04-02T06:02:03.598Z,9.19
2023-04-02T06:04:38.170Z,9.21
2023-04-02T06:07:12.440Z,9.21
2023-04-02T06:09:45.456Z,9.25
2023-04-02T06:12:20.520Z,9.29
2023-04-02T06:14:49.391Z,9.34
2023-04-02T06:17:20.058Z,9.36
2023-04-02T06:19:49.269Z,9.37
2023-04-02T06:22:26.221Z,9.40
2023-04-02T06:25:00.242Z,9.41
2023-04-02T06:27:29.526Z,9.43
2023-04-02T06:30:03.617Z,9.48
2023-04-02T06:32:32.424Z,9.52
2023-04-02T06:35:00.929Z,9.53
2023-04-02T06:37:35.808Z,9.55
2023-04-02T06:40:08.046Z,9.51
2023-04-02T06:42:39.929Z,9.51
2023-04-02T06:45:18.606Z,9.50
2023-04-02T06:47:51.313Z,9.45
2023-04-02T06:50:26.935Z,9.46
2023-04-02T06:53:09.711Z,9.47
2023-04-02T06:55:46.093Z,9.55
2023-04-02T06:58:16.666Z,9.61
2023-04-02T07:00:47.235Z,9.67
2023-04-02T07:03:20.793Z,9.72
2023-04-02T07:05:49.150Z,9.75
2023-04-02T07:08:18.874Z,9.72
2023-04-02T07:10:47.710Z,9.75
2023-04-02T07:13:17.286Z,9.75
2023-04-02T07:15:46.854Z,9.77
2023-04-02T07:18:24.758Z,9.76
2023-04-02T07:20:53.220Z,9.81
2023-04-02T07:23:23.061Z,9.88
2023-04-02T07:25:52.518Z,9.88
2023-04-02T07:28:22.750Z,9.86
2023-04-02T07:30:52.147Z,9.91
2023-04-02T07:33:22.490Z,9.93
2023-04-02T07:35:51.604Z,9.93
2023-04-02T07:38:20.049Z,9.96
2023-04-02T07:40:49.857Z,9.97
2023-04-02T07:43:18.210Z,9.96
2023-04-02T07:45:46.620Z,10.01
2023-04-02T07:48:15.654Z,10.01
2023-04-02T07:50:44.017Z,10.00
2023-04-02T07:53:29.696Z,10.04
2023-04-02T07:56:01.100Z,10.12
2023-04-02T07:58:30.356Z,10.18
2023-04-02T08:00:59.051Z,10.19
2023-04-02T08:03:27.976Z,10.20
2023-04-02T08:05:57.954Z,10.19
2023-04-02T08:08:27.256Z,10.20
2023-04-02T08:10:55.923Z,10.19
2023-04-02T08:13:25.873Z,10.18
2023-04-02T08:15:54.227Z,10.19
2023-04-02T08:18:23.620Z,10.19
2023-04-02T08:20:52.647Z,10.24
2023-04-02T08:23:21.675Z,10.25
2023-04-02T08:25:50.329Z,10.27
2023-04-02T08:28:18.863Z,10.30
2023-04-02T08:30:50.053Z,10.31
2023-04-02T08:33:19.049Z,10.38
2023-04-02T08:35:48.568Z,10.46
2023-04-02T08:38:18.078Z,10.48
2023-04-02T08:40:48.670Z,10.51
2023-04-02T08:43:49.105Z,10.51
2023-04-02T08:46:25.800Z,10.51
2023-04-02T08:48:57.483Z,10.60
2023-04-02T08:51:28.214Z,10.67
2023-04-02T08:54:01.325Z,10.73
2023-04-02T08:56:35.378Z,10.78
2023-04-02T08:59:08.790Z,10.85
2023-04-02T09:01:49.773Z,10.95
2023-04-02T09:04:21.315Z,11.06
2023-04-02T09:06:53.573Z,11.11
2023-04-02T09:09:24.372Z,11.18
2023-04-02T09:11:56.314Z,11.31
2023-04-02T09:14:33.630Z,11.40
2023-04-02T09:17:04.882Z,11.46
2023-04-02T09:19:38.222Z,11.48
2023-04-02T09:22:10.069Z,11.49
2023-04-02T09:24:38.924Z,11.49
2023-04-02T09:27:19.190Z,11.54
2023-04-02T09:29:49.865Z,11.59
2023-04-02T09:32:33.219Z,11.68
2023-04-02T09:35:25.610Z,11.73
2023-04-02T09:38:18.822Z,11.75
2023-04-02T09:40:50.546Z,11.78
2023-04-02T09:43:21.906Z,11.78
2023-04-02T09:45:59.806Z,11.79
2023-04-02T09:48:32.209Z,11.85
2023-04-02T09:51:12.669Z,11.88
2023-04-02T09:53:42.837Z,11.89
2023-04-02T09:56:14.832Z,11.93
2023-04-02T09:58:45.185Z,11.87
2023-04-02T10:01:29.894Z,11.87
2023-04-02T10:04:00.237Z,11.87
2023-04-02T10:06:30.961Z,11.95
2023-04-02T10:09:21.611Z,12.05
2023-04-02T10:11:51.659Z,12.10
2023-04-02T10:14:29.245Z,12.14
2023-04-02T10:17:00.782Z,12.21
2023-04-02T10:19:34.186Z,12.24
2023-04-02T10:22:06.434Z,12.34
2023-04-02T10:24:34.849Z,12.40
2023-04-02T10:27:17.601Z,12.44
2023-04-02T10:30:14.674Z,12.40
2023-04-02T10:32:47.938Z,12.40
2023-04-02T10:35:36.462Z,12.42
2023-04-02T10:38:24.717Z,12.44
2023-04-02T10:41:00.103Z,12.51
2023-04-02T10:44:18.975Z,12.61
2023-04-02T10:46:57.722Z,12.73
2023-04-02T10:49:33.440Z,12.88
2023-04-02T10:52:09.879Z,12.92
2023-04-02T10:54:44.355Z,12.92
2023-04-02T10:57:25.171Z,12.92
2023-04-02T10:59:57.548Z,12.92
2023-04-02T11:02:32.908Z,12.92
2023-04-02T11:05:08.846Z,12.94
2023-04-02T11:07:52.149Z,12.98
2023-04-02T11:10:22.358Z,13.05
2023-04-02T11:12:58.964Z,13.14
2023-04-02T11:15:32.112Z,13.29
2023-04-02T11:18:01.085Z,13.36
2023-04-02T11:21:00.625Z,13.31
2023-04-02T11:23:39.004Z,13.29
2023-04-02T11:26:33.661Z,13.33
2023-04-02T11:29:07.656Z,13.41
2023-04-02T11:31:36.292Z,13.45
2023-04-02T11:34:07.482Z,13.42
2023-04-02T11:37:01.677Z,13.43
2023-04-02T11:39:59.201Z,13.43
2023-04-02T11:42:33.263Z,13.44
2023-04-02T11:45:20.240Z,13.48
2023-04-02T11:48:21.591Z,13.62
2023-04-02T11:50:51.659Z,13.70
2023-04-02T11:53:24.111Z,13.77
2023-04-02T11:56:10.427Z,13.87
2023-04-02T11:58:56.573Z,14.00
2023-04-02T12:01:58.480Z,14.07
2023-04-02T12:04:53.780Z,14.07
2023-04-02T12:07:55.856Z,13.98
2023-04-02T12:10:30.185Z,13.98
2023-04-02T12:12:59.946Z,13.95
2023-04-02T12:15:44.651Z,13.89
2023-04-02T12:18:16.802Z,13.84
2023-04-02T12:20:51.215Z,13.80
2023-04-02T12:23:21.959Z,13.73
2023-04-02T12:25:58.473Z,13.76
2023-04-02T12:28:30.065Z,13.85
2023-04-02T12:31:13.021Z,13.82
2023-04-02T12:33:42.828Z,13.84
2023-04-02T12:36:20.786Z,13.88
2023-04-02T12:38:51.238Z,13.98
2023-04-02T12:41:27.042Z,14.04
2023-04-02T12:44:00.856Z,14.09
2023-04-02T12:46:30.567Z,14.03
2023-04-02T12:49:05.352Z,14.01
2023-04-02T12:51:34.642Z,14.03
2023-04-02T12:54:03.226Z,14.03
2023-04-02T12:56:31.681Z,13.99
2023-04-02T12:59:02.483Z,13.92
2023-04-02T13:01:32.081Z,13.86
2023-04-02T13:04:02.853Z,13.82
2023-04-02T13:06:32.054Z,13.79
2023-04-02T13:09:01.711Z,13.72
2023-04-02T13:11:38.564Z,13.71
2023-04-02T13:14:10.453Z,13.67
2023-04-02T13:16:41.541Z,13.53
2023-04-02T13:19:23.335Z,13.43
2023-04-02T13:21:52.578Z,13.39
2023-04-02T13:24:22.373Z,13.32
2023-04-02T13:26:52.214Z,13.22
2023-04-02T13:29:25.765Z,13.12
2023-04-02T13:32:06.566Z,13.00
2023-04-02T13:34:35.081Z,12.90
2023-04-02T13:37:03.457Z,12.83
2023-04-02T13:39:31.970Z,12.83
2023-04-02T13:42:03.071Z,12.83
2023-04-02T13:44:34.873Z,12.87
2023-04-02T13:47:03.328Z,12.87
2023-04-02T13:49:32.600Z,12.89
2023-04-02T13:52:05.142Z,12.89
2023-04-02T13:54:41.019Z,12.91
2023-04-02T13:57:11.604Z,12.97
2023-04-02T13:59:44.150Z,13.02
2023-04-02T14:02:15.624Z,13.05
2023-04-02T14:04:50.628Z,13.08
2023-04-02T14:07:30.712Z,13.11
2023-04-02T14:10:06.323Z,13.14
2023-04-02T14:12:47.898Z,13.17
2023-04-02T14:15:32.805Z,13.11
2023-04-02T14:18:16.673Z,12.98
2023-04-02T14:20:53.009Z,12.88
2023-04-02T14:23:40.774Z,12.73
2023-04-02T14:26:18.448Z,12.61
2023-04-02T14:28:59.060Z,12.49
2023-04-02T14:31:35.072Z,12.38
2023-04-02T14:34:10.473Z,12.32
2023-04-02T14:36:51.139Z,12.33
2023-04-02T14:39:29.361Z,12.32
2023-04-02T14:42:01.946Z,12.30
2023-04-02T14:44:36.094Z,12.32
2023-04-02T14:47:17.570Z,12.30
2023-04-02T14:49:49.706Z,12.16
2023-04-02T14:52:22.351Z,12.09
2023-04-02T14:54:54.505Z,12.08
2023-04-02T14:57:26.518Z,12.00
2023-04-02T15:00:01.887Z,11.99
2023-04-02T15:02:42.811Z,11.91
2023-04-02T15:05:18.521Z,11.72
2023-04-02T15:07:52.014Z,11.59
2023-04-02T15:10:27.386Z,11.53
2023-04-02T15:12:56.824Z,11.44
2023-04-02T15:15:40.456Z,11.40
2023-04-02T15:18:15.159Z,11.33
2023-04-02T15:20:54.577Z,11.19
2023-04-02T15:23:35.543Z,11.12
2023-04-02T15:26:14.940Z,10.96
2023-04-02T15:28:48.004Z,10.84
2023-04-02T15:31:16.658Z,10.82
2023-04-02T15:33:54.679Z,10.76
2023-04-02T15:36:43.107Z,10.74
2023-04-02T15:39:35.277Z,10.73
2023-04-02T15:42:20.967Z,10.73
2023-04-02T15:45:18.315Z,10.68
2023-04-02T15:48:01.971Z,10.61
2023-04-02T15:50:44.760Z,10.54
2023-04-02T15:53:34.701Z,10.49
2023-04-02T15:56:15.225Z,10.39
2023-04-02T15:59:11.248Z,10.36
2023-04-02T16:01:47.757Z,10.43
2023-04-02T16:04:45.914Z,10.52
2023-04-02T16:07:30.326Z,10.59
2023-04-02T16:10:06.217Z,10.64
2023-04-02T16:12:42.083Z,10.62
2023-04-02T16:15:17.834Z,10.64
2023-04-02T16:17:49.011Z,10.68
2023-04-02T16:20:23.918Z,10.71
2023-04-02T16:23:01.406Z,10.74
2023-04-02T16:25:35.888Z,10.73
2023-04-02T16:28:14.945Z,10.77
2023-04-02T16:30:51.651Z,10.78
2023-04-02T16:33:37.527Z,10.74
2023-04-02T16:36:19.139Z,10.70
2023-04-02T16:38:58.717Z,10.73
2023-04-02T16:41:40.313Z,10.73
2023-04-02T16:44:21.255Z,10.70
2023-04-02T16:47:03.185Z,10.70
2023-04-02T16:49:37.170Z,10.70
2023-04-02T16:52:23.793Z,10.71
2023-04-02T16:55:11.745Z,10.71
2023-04-02T16:57:51.668Z,10.72
2023-04-02T17:00:31.753Z,10.68
2023-04-02T17:03:19.155Z,10.67
2023-04-02T17:05:56.929Z,10.69
2023-04-02T17:08:27.244Z,10.66
2023-04-02T17:11:01.961Z,10.63
2023-04-02T17:13:39.746Z,10.54
2023-04-02T17:16:17.935Z,10.51
2023-04-02T17:18:49.530Z,10.51
2023-04-02T17:21:21.822Z,10.50
2023-04-02T17:23:56.589Z,10.44
2023-04-02T17:26:29.107Z,10.45
2023-04-02T17:28:59.587Z,10.47
2023-04-02T17:31:34.226Z,10.46
2023-04-02T17:34:10.855Z,10.42
2023-04-02T17:36:47.472Z,10.39
2023-04-02T17:39:23.184Z,10.36
2023-04-02T17:42:03.400Z,10.35
2023-04-02T17:44:55.314Z,10.33
2023-04-02T17:47:25.813Z,10.28
2023-04-02T17:50:07.716Z,10.22
2023-04-02T17:52:41.539Z,10.12
2023-04-02T17:55:19.718Z,10.04
2023-04-02T17:58:01.589Z,9.99
2023-04-02T18:00:57.521Z,9.94
2023-04-02T18:03:58.686Z,9.84
2023-04-02T18:06:38.017Z,9.75
2023-04-02T18:09:26.114Z,9.74
2023-04-02T18:12:04.579Z,9.71
2023-04-02T18:14:59.587Z,9.60
2023-04-02T18:17:34.615Z,9.52
2023-04-02T18:20:16.175Z,9.46
2023-04-02T18:22:54.197Z,9.42
2023-04-02T18:25:33.886Z,9.39
2023-04-02T18:28:17.797Z,9.36
2023-04-02T18:30:55.680Z,9.34
2023-04-02T18:33:54.512Z,9.29
2023-04-02T18:36:27.870Z,9.26
2023-04-02T18:39:03.177Z,9.27
2023-04-02T18:41:44.334Z,9.23
2023-04-02T18:44:28.632Z,9.16
2023-04-02T18:47:08.509Z,9.14
2023-04-02T18:49:40.950Z,9.10
2023-04-02T18:52:13.401Z,9.11
2023-04-02T18:54:46.841Z,9.11
2023-04-02T18:57:18.819Z,9.05
2023-04-02T18:59:50.637Z,8.96
2023-04-02T19:02:44.850Z,8.85
2023-04-02T19:05:21.727Z,8.79
2023-04-02T19:07:56.144Z,8.75
2023-04-02T19:10:32.198Z,8.70
2023-04-02T19:13:00.942Z,8.65
2023-04-02T19:15:38.209Z,8.64
2023-04-02T19:18:19.061Z,8.62
2023-04-02T19:20:57.057Z,8.60
2023-04-02T19:23:52.803Z,8.60
2023-04-02T19:26:28.073Z,8.55
2023-04-02T19:29:05.231Z,8.53
2023-04-02T19:31:49.525Z,8.51
2023-04-02T19:34:26.467Z,8.51
2023-04-02T19:37:00.687Z,8.53
2023-04-02T19:39:52.513Z,8.52
2023-04-02T19:42:34.192Z,8.48
2023-04-02T19:45:03.852Z,8.45
2023-04-02T19:47:32.454Z,8.40
2023-04-02T19:50:02.282Z,8.34
2023-04-02T19:52:30.728Z,8.28
2023-04-02T19:54:59.071Z,8.22
2023-04-02T19:57:28.489Z,8.17
2023-04-02T19:59:56.897Z,8.09
2023-04-02T20:02:25.494Z,8.07
2023-04-02T20:04:54.048Z,8.04
2023-04-02T20:07:23.853Z,7.91
2023-04-02T20:09:52.292Z,7.79
2023-04-02T20:12:21.461Z,7.71
2023-04-02T20:14:49.836Z,7.66
2023-04-02T20:17:18.204Z,7.59
2023-04-02T20:19:46.637Z,7.52
2023-04-02T20:22:15.030Z,7.49
2023-04-02T20:24:45.334Z,7.46
2023-04-02T20:27:13.847Z,7.44
2023-04-02T20:29:42.503Z,7.38
2023-04-02T20:32:12.906Z,7.30
2023-04-02T20:34:41.768Z,7.26
2023-04-02T20:37:10.173Z,7.24
2023-04-02T20:39:39.085Z,7.24
2023-04-02T20:42:08.958Z,7.24
2023-04-02T20:44:38.985Z,7.26
2023-04-02T20:47:08.314Z,7.25
2023-04-02T20:49:36.699Z,7.27
2023-04-02T20:52:05.227Z,7.19
2023-04-02T20:54:33.713Z,7.08
2023-04-02T20:57:02.772Z,6.80
2023-04-02T20:59:32.570Z,6.77
2023-04-02T21:02:05.076Z,6.80
2023-04-02T21:04:33.489Z,6.82
2023-04-02T21:07:01.871Z,6.83
2023-04-02T21:09:30.786Z,6.83
2023-04-02T21:11:59.234Z,6.85
2023-04-02T21:14:27.682Z,6.85
2023-04-02T21:16:57.867Z,6.75
2023-04-02T21:19:27.118Z,6.67
2023-04-02T21:21:55.748Z,6.66
2023-04-02T21:24:24.138Z,6.63
2023-04-02T21:26:52.537Z,6.56
2023-04-02T21:29:20.980Z,6.42
2023-04-02T21:31:50.353Z,6.28
2023-04-02T21:34:20.672Z,6.22
2023-04-02T21:36:50.467Z,6.15
2023-04-02T21:39:20.608Z,6.09
2023-04-02T21:41:51.228Z,5.95
2023-04-02T21:44:21.909Z,5.86
2023-04-02T21:46:52.129Z,5.88
2023-04-02T21:49:25.429Z,5.95
2023-04-02T21:51:54.151Z,6.05
2023-04-02T21:54:22.657Z,6.15
2023-04-02T21:56:51.495Z,6.16
2023-04-02T21:59:22.212Z,6.10
2023-04-02T22:01:52.434Z,5.88
2023-04-02T22:04:24.453Z,5.80
2023-04-02T22:06:53.809Z,5.80
2023-04-02T22:09:24.577Z,5.73
2023-04-02T22:11:55.587Z,5.70
2023-04-02T22:14:24.434Z,5.63
2023-04-02T22:16:52.926Z,5.58
2023-04-02T22:19:23.226Z,5.54
2023-04-02T22:21:51.783Z,5.65
2023-04-02T22:24:22.025Z,5.68
2023-04-02T22:26:51.062Z,5.68
2023-04-02T22:29:19.504Z,5.60
2023-04-02T22:31:48.350Z,5.58
2023-04-02T22:34:16.710Z,5.53
2023-04-02T22:36:57.648Z,5.45
2023-04-02T22:39:26.090Z,5.47
2023-04-02T22:41:54.401Z,5.55
2023-04-02T22:44:23.139Z,5.50
2023-04-02T22:46:51.578Z,5.55
2023-04-02T22:49:20.093Z,5.64
2023-04-02T22:51:48.532Z,5.63
2023-04-02T22:54:18.386Z,5.63
2023-04-02T22:56:47.381Z,5.70
2023-04-02T22:59:16.118Z,5.70
2023-04-02T23:01:46.369Z,5.63
2023-04-02T23:04:14.856Z,5.55
2023-04-02T23:06:43.237Z,5.64
2023-04-02T23:09:12.098Z,5.76
2023-04-02T23:11:41.783Z,5.89
2023-04-02T23:14:10.658Z,6.00
2023-04-02T23:16:39.074Z,6.05
2023-04-02T23:19:08.172Z,6.07
2023-04-02T23:21:36.491Z,6.11
2023-04-02T23:24:05.132Z,6.15
2023-04-02T23:26:33.461Z,6.18
2023-04-02T23:29:03.146Z,6.19
2023-04-02T23:31:31.552Z,6.21
2023-04-02T23:34:00.002Z,6.21
2023-04-02T23:36:30.116Z,6.22
2023-04-02T23:39:01.435Z,6.19
2023-04-02T23:41:31.366Z,6.18
2023-04-02T23:43:59.976Z,6.18
2023-04-02T23:46:30.716Z,6.18
2023-04-02T23:49:00.525Z,6.22
2023-04-02T23:51:29.672Z,6.24
2023-04-02T23:53:58.216Z,6.25
2023-04-02T23:56:27.082Z,6.23
2023-04-02T23:58:55.442Z,6.20
